Time;durP1;ratioP1;P1;durP2;ratioP2;P2;SDS_P1;SDS_P2;PMS_P1;PMS_P2;Temp;Humidity;BMP_temperature;BMP_pressure;BME280_temperature;BME280_humidity;BME280_pressure;Samples;Min_cycle;Max_cycle;Signal;HPM_P1;HPM_P2
2022/09/18 00:00:15;;;;;;;;;;;;;;;9.61;89.89;100036.22;5032153;28;1779;-81
2022/09/18 00:02:40;;;;;;;;;;;;;;;9.63;90.90;100032.09;5014342;28;1357;-81
2022/09/18 00:05:06;;;;;;;;;;;;;;;9.64;90.11;100035.63;5012482;28;1261;-81
2022/09/18 00:07:31;;;;;;;;;;;;;;;9.68;90.37;100031.25;5000936;28;1421;-81
2022/09/18 00:09:56;;;;;;;;;;;;;;;9.74;90.94;100035.56;5021831;28;1274;-81
2022/09/18 00:12:21;;;;;;;;;;;;;;;9.77;90.24;100035.00;5018742;28;1945;-81
2022/09/18 00:14:46;;;;;;;;;;;;;;;9.73;90.38;100026.53;5015211;28;1606;-81
2022/09/18 00:17:11;;;;;;;;;;;;;;;9.69;90.94;100024.69;4999777;28;1405;-81
2022/09/18 00:19:36;;;;;;;;;;;;;;;9.70;91.24;100026.28;5012640;28;1356;-81
2022/09/18 00:22:02;;;;;;;;;;;;;;;9.69;91.28;100030.97;5019133;28;1593;-81
2022/09/18 00:24:27;;;;;;;;;;;;;;;9.69;92.08;100039.16;5006595;28;1520;-81
2022/09/18 00:26:52;;;;;;;;;;;;;;;9.70;91.42;100031.75;5016573;28;1709;-81
2022/09/18 00:29:17;;;;;;;;;;;;;;;9.70;92.08;100035.31;5026227;28;1390;-81
2022/09/18 00:31:43;;;;;;;;;;;;;;;9.73;92.03;100033.94;5017135;28;1902;-81
2022/09/18 00:34:10;;;;;;;;;;;;;;;9.68;92.27;100032.06;5006423;28;1800;-81
2022/09/18 00:36:36;;;;;;;;;;;;;;;9.74;91.55;100041.03;5012587;28;1615;-81
2022/09/18 00:39:02;;;;;;;;;;;;;;;9.75;91.42;100045.38;5028007;28;1480;-81
2022/09/18 00:41:28;;;;;;;;;;;;;;;9.74;92.20;100044.56;5035681;28;1330;-81
2022/09/18 00:43:58;;;;;;;;;;;;;;;9.73;91.66;100039.38;5031183;28;1284;-82
2022/09/18 00:46:25;;;;;;;;;;;;;;;9.73;92.18;100042.13;5027517;28;1800;-81
2022/09/18 00:49:09;;;;;;;;;;;;;;;9.70;92.78;100043.50;5020587;28;1612;-82
2022/09/18 00:51:35;;;;;;;;;;;;;;;9.73;92.92;100045.66;5016313;28;1951;-81
2022/09/18 00:54:16;;;;;;;;;;;;;;;9.73;92.73;100045.66;5026213;28;1564;-82
2022/09/18 00:56:41;;;;;;;;;;;;;;;9.73;93.15;100044.84;5021430;28;1664;-81
2022/09/18 00:59:09;;;;;;;;;;;;;;;9.72;92.25;100049.50;5026602;28;1740;-81
2022/09/18 01:01:34;;;;;;;;;;;;;;;9.74;92.52;100057.41;5025032;28;1294;-81
2022/09/18 01:03:59;;;;;;;;;;;;;;;9.75;92.45;100053.59;5032007;28;1669;-81
2022/09/18 01:06:27;;;;;;;;;;;;;;;9.74;93.25;100052.78;4999024;28;1601;-81
2022/09/18 01:08:52;;;;;;;;;;;;;;;9.73;92.64;100055.78;5021274;28;1597;-81
2022/09/18 01:11:26;;;;;;;;;;;;;;;9.71;93.39;100057.97;5020314;28;1934;-82
2022/09/18 01:14:08;;;;;;;;;;;;;;;9.67;92.93;100065.13;5009414;28;1670;-81
2022/09/18 01:16:38;;;;;;;;;;;;;;;9.73;92.29;100063.97;5024338;28;1502;-81
2022/09/18 01:19:14;;;;;;;;;;;;;;;9.73;92.91;100055.78;5024919;28;1429;-81
2022/09/18 01:21:49;;;;;;;;;;;;;;;9.77;93.42;100059.59;5017417;28;1308;-81
2022/09/18 01:24:31;;;;;;;;;;;;;;;9.77;92.15;100056.88;5013148;28;1402;-81
2022/09/18 01:26:59;;;;;;;;;;;;;;;9.76;92.62;100057.97;5022198;28;1313;-82
2022/09/18 01:29:27;;;;;;;;;;;;;;;9.74;92.22;100055.50;5024530;28;1293;-81
2022/09/18 01:32:00;;;;;;;;;;;;;;;9.75;92.60;100048.13;5008537;28;1957;-81
2022/09/18 01:34:45;;;;;;;;;;;;;;;9.75;93.54;100059.88;5016334;28;1649;-82
2022/09/18 01:37:13;;;;;;;;;;;;;;;9.78;92.40;100051.09;5007457;28;1555;-81
2022/09/18 01:39:45;;;;;;;;;;;;;;;9.76;93.12;100053.31;5024973;28;1352;-81
2022/09/18 01:42:12;;;;;;;;;;;;;;;9.77;92.94;100051.41;5028865;28;1779;-81
2022/09/18 01:44:39;;;;;;;;;;;;;;;9.77;93.06;100054.94;5035382;28;1296;-81
2022/09/18 01:47:08;;;;;;;;;;;;;;;9.74;93.23;100055.50;5032797;28;1414;-81
2022/09/18 01:49:37;;;;;;;;;;;;;;;9.72;92.72;100051.41;5020076;28;1454;-82
2022/09/18 01:52:07;;;;;;;;;;;;;;;9.68;93.77;100062.13;5016338;28;1902;-81
2022/09/18 01:54:36;;;;;;;;;;;;;;;9.69;93.42;100060.22;5001811;28;1607;-80
2022/09/18 01:57:06;;;;;;;;;;;;;;;9.70;92.86;100067.28;5014904;28;1591;-81
2022/09/18 01:59:41;;;;;;;;;;;;;;;9.72;93.42;100065.09;5026208;28;1398;-81
2022/09/18 02:02:10;;;;;;;;;;;;;;;9.70;93.63;100067.28;5028873;28;1448;-81
2022/09/18 02:04:37;;;;;;;;;;;;;;;9.68;92.79;100055.84;5018969;28;1634;-81
2022/09/18 02:07:07;;;;;;;;;;;;;;;9.67;92.63;100065.13;5031153;28;1590;-80
2022/09/18 02:09:32;;;;;;;;;;;;;;;9.69;92.77;100060.22;5024524;28;1400;-81
2022/09/18 02:11:59;;;;;;;;;;;;;;;9.68;92.75;100055.84;5023640;28;1943;-81
2022/09/18 02:14:32;;;;;;;;;;;;;;;9.64;93.39;100057.50;5031822;28;1820;-81
2022/09/18 02:17:05;;;;;;;;;;;;;;;9.59;92.53;100063.84;5014549;28;1455;-81
2022/09/18 02:19:35;;;;;;;;;;;;;;;9.56;93.63;100058.94;5019629;28;1349;-81
2022/09/18 02:22:02;;;;;;;;;;;;;;;9.56;93.59;100058.09;5029369;28;1566;-82
2022/09/18 02:24:31;;;;;;;;;;;;;;;9.56;93.75;100058.09;5016100;28;1623;-82
2022/09/18 02:26:57;;;;;;;;;;;;;;;9.57;92.83;100057.00;5026518;28;1319;-82
2022/09/18 02:29:23;;;;;;;;;;;;;;;9.54;93.14;100060.31;5025141;28;1271;-82
2022/09/18 02:31:49;;;;;;;;;;;;;;;9.50;93.31;100054.59;5041204;28;1894;-80
2022/09/18 02:34:14;;;;;;;;;;;;;;;9.48;93.04;100052.16;5027025;28;1700;-81
2022/09/18 02:36:43;;;;;;;;;;;;;;;9.47;93.82;100044.22;5020489;28;1474;-81
2022/09/18 02:39:13;;;;;;;;;;;;;;;9.46;93.84;100043.41;5033014;28;1458;-81
2022/09/18 02:41:46;;;;;;;;;;;;;;;9.46;93.12;100048.06;5028023;28;1384;-81
2022/09/18 02:44:11;;;;;;;;;;;;;;;9.43;93.98;100049.47;5028971;28;1650;-81
2022/09/18 02:46:56;;;;;;;;;;;;;;;9.41;94.16;100048.09;5017838;28;1362;-81
2022/09/18 02:49:29;;;;;;;;;;;;;;;9.39;93.83;100048.38;5025580;28;1233;-82
2022/09/18 02:52:01;;;;;;;;;;;;;;;9.41;93.46;100048.94;5017472;28;1969;-82
2022/09/18 02:54:36;;;;;;;;;;;;;;;9.41;93.85;100050.84;5015985;28;1324;-81
2022/09/18 02:57:05;;;;;;;;;;;;;;;9.41;94.46;100053.56;4998993;28;1387;-81
2022/09/18 02:59:35;;;;;;;;;;;;;;;9.40;94.46;100058.22;5030377;28;1227;-82
2022/09/18 03:02:00;;;;;;;;;;;;;;;9.42;94.49;100056.03;5019086;28;2160;-81
2022/09/18 03:04:26;;;;;;;;;;;;;;;9.45;94.21;100054.63;5019380;28;1304;-81
2022/09/18 03:06:52;;;;;;;;;;;;;;;9.43;94.08;100056.84;5022193;28;1311;-81
2022/09/18 03:09:17;;;;;;;;;;;;;;;9.45;94.96;100054.63;5027321;28;1463;-81
2022/09/18 03:11:43;;;;;;;;;;;;;;;9.47;95.00;100057.91;5022115;28;1890;-81
2022/09/18 03:14:08;;;;;;;;;;;;;;;9.42;94.36;100053.28;5021395;28;1412;-80
2022/09/18 03:16:33;;;;;;;;;;;;;;;9.42;94.63;100053.28;5028178;28;1603;-81
2022/09/18 03:18:58;;;;;;;;;;;;;;;9.47;94.50;100049.69;5011427;28;1791;-80
2022/09/18 03:21:24;;;;;;;;;;;;;;;9.49;95.11;100037.41;5018142;28;1535;-81
2022/09/18 03:23:50;;;;;;;;;;;;;;;9.51;94.06;100044.50;5018336;28;1631;-81
2022/09/18 03:26:15;;;;;;;;;;;;;;;9.50;94.66;100046.41;5017726;28;1567;-80
2022/09/18 03:28:40;;;;;;;;;;;;;;;9.47;94.43;100042.31;5024740;28;1555;-81
2022/09/18 03:31:05;;;;;;;;;;;;;;;9.48;95.50;100045.88;5017013;28;1898;-81
2022/09/18 03:33:30;;;;;;;;;;;;;;;9.49;95.24;100048.31;5019037;28;1768;-81
2022/09/18 03:35:55;;;;;;;;;;;;;;;9.46;95.56;100048.06;5018555;28;1546;-81
2022/09/18 03:38:20;;;;;;;;;;;;;;;9.43;95.47;100041.28;5014612;28;1743;-82
2022/09/18 03:40:46;;;;;;;;;;;;;;;9.40;95.15;100041.84;5019364;28;1341;-81
2022/09/18 03:43:11;;;;;;;;;;;;;;;9.36;96.13;100035.28;5003322;28;1477;-80
2022/09/18 03:45:36;;;;;;;;;;;;;;;9.33;95.29;100035.88;5009473;28;1710;-81
2022/09/18 03:48:02;;;;;;;;;;;;;;;9.28;95.72;100037.81;5022185;28;1456;-80
2022/09/18 03:50:27;;;;;;;;;;;;;;;9.26;96.20;100040.03;5025876;28;1581;-80
2022/09/18 03:52:52;;;;;;;;;;;;;;;9.23;96.39;100043.31;5027470;28;1890;-81
2022/09/18 03:55:17;;;;;;;;;;;;;;;9.25;95.90;100036.47;5016147;28;1084;-81
2022/09/18 03:57:44;;;;;;;;;;;;;;;9.25;96.21;100039.22;5003778;28;1714;-81
2022/09/18 04:00:10;;;;;;;;;;;;;;;9.24;95.99;100042.22;5023640;28;1498;-80
2022/09/18 04:02:35;;;;;;;;;;;;;;;9.25;95.85;100030.19;5030468;28;1364;-82
2022/09/18 04:05:01;;;;;;;;;;;;;;;9.25;96.35;100036.47;5009492;28;1694;-82
2022/09/18 04:07:26;;;;;;;;;;;;;;;9.22;95.84;100028.84;5010644;28;1697;-80
2022/09/18 04:09:51;;;;;;;;;;;;;;;9.21;96.55;100038.13;5033497;28;1155;-81
2022/09/18 04:12:16;;;;;;;;;;;;;;;9.21;96.84;100035.38;5020248;28;1905;-81
2022/09/18 04:14:42;;;;;;;;;;;;;;;9.21;96.46;100032.66;5002573;28;1542;-82
2022/09/18 04:17:07;;;;;;;;;;;;;;;9.25;96.40;100039.22;5018103;28;1436;-81
2022/09/18 04:19:32;;;;;;;;;;;;;;;9.27;96.90;100039.72;5023098;28;1479;-81
2022/09/18 04:21:57;;;;;;;;;;;;;;;9.26;96.35;100040.84;5025778;28;1239;-81
2022/09/18 04:24:22;;;;;;;;;;;;;;;9.27;96.89;100038.94;5016148;28;1437;-81
2022/09/18 04:26:48;;;;;;;;;;;;;;;9.29;96.67;100037.53;5014375;28;1733;-81
2022/09/18 04:29:14;;;;;;;;;;;;;;;9.33;96.62;100035.06;5018452;28;1476;-82
2022/09/18 04:31:39;;;;;;;;;;;;;;;9.32;96.51;100031.50;5006250;28;1894;-81
2022/09/18 04:34:04;;;;;;;;;;;;;;;9.31;97.39;100037.25;5003318;28;1607;-81
2022/09/18 04:36:30;;;;;;;;;;;;;;;9.28;96.94;100035.06;5019656;28;1363;-81
2022/09/18 04:38:55;;;;;;;;;;;;;;;9.26;97.33;100035.38;5010143;28;1419;-81
2022/09/18 04:41:20;;;;;;;;;;;;;;;9.24;98.13;100034.84;5024968;28;1141;-81
2022/09/18 04:43:45;;;;;;;;;;;;;;;9.23;98.67;100032.38;5019265;28;1528;-82
2022/09/18 04:46:10;;;;;;;;;;;;;;;9.25;98.31;100032.94;5028751;28;1428;-81
2022/09/18 04:48:35;;;;;;;;;;;;;;;9.25;98.24;100033.75;5022015;28;1396;-81
2022/09/18 04:51:00;;;;;;;;;;;;;;;9.22;98.05;100034.31;5024621;28;1961;-80
2022/09/18 04:53:27;;;;;;;;;;;;;;;9.20;98.50;100035.66;5016881;28;1740;-81
2022/09/18 04:55:52;;;;;;;;;;;;;;;9.17;99.13;100031.63;5018782;28;1487;-82
2022/09/18 04:58:18;;;;;;;;;;;;;;;9.19;99.25;100034.84;5024606;28;1481;-80
2022/09/18 05:00:43;;;;;;;;;;;;;;;9.21;98.58;100026.38;5017329;28;1498;-82
2022/09/18 05:03:09;;;;;;;;;;;;;;;9.24;98.62;100031.28;5022152;28;1351;-81
2022/09/18 05:05:34;;;;;;;;;;;;;;;9.25;98.50;100028.28;5019844;28;1677;-81
2022/09/18 05:08:03;;;;;;;;;;;;;;;9.28;99.02;100040.53;5019505;28;1888;-80
2022/09/18 05:10:28;;;;;;;;;;;;;;;9.29;98.43;100039.44;5024626;28;1356;-81
2022/09/18 05:12:53;;;;;;;;;;;;;;;9.28;99.30;100040.53;5029062;28;1961;-82
2022/09/18 05:15:19;;;;;;;;;;;;;;;9.24;98.77;100032.09;5025256;28;1773;-82
2022/09/18 05:17:44;;;;;;;;;;;;;;;9.26;98.92;100038.09;5027420;28;1254;-83
2022/09/18 05:20:09;;;;;;;;;;;;;;;9.26;99.13;100040.84;5029154;28;1487;-83
2022/09/18 05:22:35;;;;;;;;;;;;;;;9.24;99.91;100037.56;5017213;28;1776;-83
2022/09/18 05:25:00;;;;;;;;;;;;;;;9.27;99.02;100034.25;5007180;28;1732;-83
2022/09/18 05:27:25;;;;;;;;;;;;;;;9.28;99.04;100035.06;5018034;28;1577;-81
2022/09/18 05:29:51;;;;;;;;;;;;;;;9.30;99.22;100039.16;5023869;28;1684;-83
2022/09/18 05:32:19;;;;;;;;;;;;;;;9.32;99.06;100028.78;5017363;28;1890;-82
2022/09/18 05:34:48;;;;;;;;;;;;;;;9.33;98.91;100038.59;5021575;28;1299;-83
2022/09/18 05:37:14;;;;;;;;;;;;;;;9.35;98.58;100033.69;5019524;28;1785;-81
2022/09/18 05:39:41;;;;;;;;;;;;;;;9.45;98.68;100038.22;5026239;28;1347;-82
2022/09/18 05:42:06;;;;;;;;;;;;;;;9.51;98.67;100030.84;5033825;28;1010;-82
2022/09/18 05:44:31;;;;;;;;;;;;;;;9.56;98.18;100038.97;5039502;28;1346;-83
2022/09/18 05:46:56;;;;;;;;;;;;;;;9.60;98.61;100035.41;5025104;28;1558;-82
2022/09/18 05:49:21;;;;;;;;;;;;;;;9.62;97.93;100027.72;5020624;28;1912;-84
2022/09/18 05:51:46;;;;;;;;;;;;;;;9.65;98.28;100031.81;5025211;28;1913;-84
2022/09/18 05:54:12;;;;;;;;;;;;;;;9.66;97.34;100034.25;5030295;28;1296;-84
2022/09/18 05:56:37;;;;;;;;;;;;;;;9.70;97.32;100035.31;5025144;28;1717;-83
2022/09/18 05:59:02;;;;;;;;;;;;;;;9.73;96.48;100031.19;5021921;28;1321;-85
2022/09/18 06:01:28;;;;;;;;;;;;;;;9.81;97.08;100034.13;5021793;28;1241;-84
2022/09/18 06:03:53;;;;;;;;;;;;;;;9.88;97.21;100036.50;5031158;28;1362;-84
2022/09/18 06:06:19;;;;;;;;;;;;;;;9.92;96.30;100034.03;5014139;28;1505;-83
2022/09/18 06:08:44;;;;;;;;;;;;;;;9.95;96.69;100034.28;5024817;28;1475;-84
2022/09/18 06:11:09;;;;;;;;;;;;;;;9.99;97.09;100037.25;5023417;28;1870;-83
2022/09/18 06:13:35;;;;;;;;;;;;;;;9.98;96.76;100033.69;5031682;28;1393;-82
2022/09/18 06:16:00;;;;;;;;;;;;;;;10.00;95.87;100031.50;5019760;28;1448;-82
2022/09/18 06:18:25;;;;;;;;;;;;;;;10.00;95.76;100027.94;5029107;28;1682;-83
2022/09/18 06:20:54;;;;;;;;;;;;;;;10.00;95.79;100031.50;5023403;28;1887;-83
2022/09/18 06:23:20;;;;;;;;;;;;;;;9.99;96.40;100023.56;5039617;28;1239;-83
2022/09/18 06:25:45;;;;;;;;;;;;;;;10.00;96.86;100030.69;5022121;28;1613;-84
2022/09/18 06:28:10;;;;;;;;;;;;;;;9.97;96.38;100032.06;5030718;28;1330;-84
2022/09/18 06:30:36;;;;;;;;;;;;;;;10.00;96.38;100036.97;5035054;28;1258;-83
2022/09/18 06:33:02;;;;;;;;;;;;;;;10.01;95.64;100024.13;5024380;28;2064;-83
2022/09/18 06:35:28;;;;;;;;;;;;;;;10.01;96.23;100022.19;5016866;28;1169;-84
2022/09/18 06:37:53;;;;;;;;;;;;;;;10.02;95.72;100020.28;5021442;28;1654;-84
2022/09/18 06:40:18;;;;;;;;;;;;;;;10.02;95.19;100017.53;5036098;28;1250;-84
2022/09/18 06:42:43;;;;;;;;;;;;;;;10.01;96.49;100024.94;5025162;28;1291;-81
2022/09/18 06:45:09;;;;;;;;;;;;;;;10.03;96.02;100028.19;5026789;28;1477;-84
2022/09/18 06:47:34;;;;;;;;;;;;;;;10.03;95.90;100025.47;5029150;28;1580;-83
2022/09/18 06:49:59;;;;;;;;;;;;;;;10.03;96.15;100028.19;5023647;28;1720;-83
2022/09/18 06:52:24;;;;;;;;;;;;;;;10.04;95.42;100024.34;5027651;28;1890;-83
2022/09/18 06:54:49;;;;;;;;;;;;;;;10.08;96.01;100024.59;5034690;28;1344;-84
2022/09/18 06:57:14;;;;;;;;;;;;;;;10.10;95.58;100027.84;5030431;28;1477;-83
2022/09/18 06:59:41;;;;;;;;;;;;;;;10.10;96.94;100016.91;5013229;28;1491;-84
2022/09/18 07:02:11;;;;;;;;;;;;;;;10.13;97.60;100032.72;5029690;28;1157;-82
2022/09/18 07:04:36;;;;;;;;;;;;;;;10.13;97.73;100019.06;5030651;28;1471;-82
2022/09/18 07:07:02;;;;;;;;;;;;;;;10.15;97.25;100023.13;5020991;28;1221;-83
2022/09/18 07:09:27;;;;;;;;;;;;;;;10.18;97.71;100025.34;5028253;28;1491;-83
2022/09/18 07:11:52;;;;;;;;;;;;;;;10.21;97.63;100026.66;5024143;28;1964;-82
2022/09/18 07:14:17;;;;;;;;;;;;;;;10.23;96.80;100027.19;5030697;28;1619;-84
2022/09/18 07:16:42;;;;;;;;;;;;;;;10.28;98.19;100024.41;5030844;28;1547;-82
2022/09/18 07:19:08;;;;;;;;;;;;;;;10.27;97.77;100017.31;5029340;28;1492;-84
2022/09/18 07:21:33;;;;;;;;;;;;;;;10.32;97.60;100019.16;5018922;28;1530;-82
2022/09/18 07:23:58;;;;;;;;;;;;;;;10.36;97.75;100018.31;5021946;28;1866;-80
2022/09/18 07:26:23;;;;;;;;;;;;;;;10.42;97.51;100021.78;5019410;28;1633;-82
2022/09/18 07:28:50;;;;;;;;;;;;;;;10.44;98.13;100014.94;5027272;28;1419;-82
2022/09/18 07:31:15;;;;;;;;;;;;;;;10.46;97.94;100018.16;5037311;28;1973;-82
2022/09/18 07:33:40;;;;;;;;;;;;;;;10.50;98.18;100024.69;5041556;28;1308;-82
2022/09/18 07:36:06;;;;;;;;;;;;;;;10.50;97.80;100012.94;5041574;28;1048;-83
2022/09/18 07:38:33;;;;;;;;;;;;;;;10.48;96.40;100010.50;5023183;28;1837;-83
2022/09/18 07:41:00;;;;;;;;;;;;;;;10.53;97.31;100012.38;5019223;28;1220;-83
2022/09/18 07:43:25;;;;;;;;;;;;;;;10.56;97.06;100012.56;5020265;28;1221;-83
2022/09/18 07:45:50;;;;;;;;;;;;;;;10.59;96.56;100014.75;5020919;28;914;-83
2022/09/18 07:48:15;;;;;;;;;;;;;;;10.56;96.10;100019.97;5003086;28;1404;-82
2022/09/18 07:50:41;;;;;;;;;;;;;;;10.58;95.49;100020.50;5000147;28;903;-83
2022/09/18 07:53:07;;;;;;;;;;;;;;;10.60;96.24;100018.28;5001449;28;1890;-83
2022/09/18 07:55:33;;;;;;;;;;;;;;;10.65;96.19;100020.97;5015494;28;1306;-83
2022/09/18 07:58:00;;;;;;;;;;;;;;;10.69;96.54;100019.28;5013688;28;1473;-83
2022/09/18 08:00:25;;;;;;;;;;;;;;;10.73;96.03;100023.03;5019214;28;1544;-83
2022/09/18 08:02:59;;;;;;;;;;;;;;;10.73;95.64;100027.69;5018680;28;1244;-82
2022/09/18 08:05:24;;;;;;;;;;;;;;;10.75;95.38;100017.28;5020491;28;855;-83
2022/09/18 08:07:50;;;;;;;;;;;;;;;10.77;95.33;100015.06;5003630;28;1854;-83
2022/09/18 08:10:15;;;;;;;;;;;;;;;10.78;95.68;100019.44;5001472;28;943;-83
2022/09/18 08:12:40;;;;;;;;;;;;;;;10.82;95.42;100018.53;5000517;28;1987;-83
2022/09/18 08:15:06;;;;;;;;;;;;;;;10.86;95.65;100019.59;5017061;28;986;-84
2022/09/18 08:17:31;;;;;;;;;;;;;;;10.94;95.82;100012.66;5029557;28;1696;-83
2022/09/18 08:19:57;;;;;;;;;;;;;;;10.94;94.78;100018.94;5044884;28;1164;-82
2022/09/18 08:22:22;;;;;;;;;;;;;;;10.93;94.79;100014.56;5045076;28;1275;-82
2022/09/18 08:24:47;;;;;;;;;;;;;;;10.94;94.75;100018.13;5048419;28;1187;-83
2022/09/18 08:27:13;;;;;;;;;;;;;;;10.98;95.10;100019.97;5033523;28;1600;-83
2022/09/18 08:29:38;;;;;;;;;;;;;;;11.02;94.84;100008.44;5023249;28;1049;-85
2022/09/18 08:32:03;;;;;;;;;;;;;;;11.04;95.31;100004.31;5027900;28;1898;-83
2022/09/18 08:34:28;;;;;;;;;;;;;;;11.12;95.86;100009.13;5040113;28;1307;-83
2022/09/18 08:36:54;;;;;;;;;;;;;;;11.15;94.76;100005.75;5032884;28;1746;-83
2022/09/18 08:39:19;;;;;;;;;;;;;;;11.21;94.72;100012.00;5020943;28;1684;-82
2022/09/18 08:42:13;;;;;;;;;;;;;;;11.19;94.66;100014.22;5043797;28;1236;-83
2022/09/18 08:44:44;;;;;;;;;;;;;;;11.16;93.47;100017.53;5043818;28;1453;-81
2022/09/18 08:47:33;;;;;;;;;;;;;;;11.19;94.02;100008.75;5021071;28;1762;-82
2022/09/18 08:50:04;;;;;;;;;;;;;;;11.14;93.18;100006.91;5002847;28;1092;-83
2022/09/18 08:52:37;;;;;;;;;;;;;;;11.23;93.89;100001.53;5000625;28;1965;-83
2022/09/18 08:55:04;;;;;;;;;;;;;;;11.25;93.14;100002.88;4999767;28;1278;-82
2022/09/18 08:57:29;;;;;;;;;;;;;;;11.26;93.27;99996.28;5000133;28;1512;-83
2022/09/18 08:59:57;;;;;;;;;;;;;;;11.22;93.02;100003.50;5040418;28;1033;-83
2022/09/18 09:02:43;;;;;;;;;;;;;;;11.20;92.95;100004.91;5038670;28;1195;-83
2022/09/18 09:05:12;;;;;;;;;;;;;;;11.20;93.60;99996.69;5039679;28;1066;-83
2022/09/18 09:07:42;;;;;;;;;;;;;;;11.22;93.13;99994.47;5037055;28;1884;-83
2022/09/18 09:10:26;;;;;;;;;;;;;;;11.23;93.70;99996.88;5008731;28;1794;-84
2022/09/18 09:13:09;;;;;;;;;;;;;;;11.18;93.44;99998.88;5002872;28;1890;-83
2022/09/18 09:15:39;;;;;;;;;;;;;;;11.10;93.79;99997.63;5001071;28;1187;-84
2022/09/18 09:18:08;;;;;;;;;;;;;;;11.06;94.15;100001.28;5015018;28;1727;-83
2022/09/18 09:20:44;;;;;;;;;;;;;;;10.98;95.48;100009.03;5028299;28;1449;-81
2022/09/18 09:23:24;;;;;;;;;;;;;;;10.90;95.09;100008.88;5022198;28;1311;-84
2022/09/18 09:25:59;;;;;;;;;;;;;;;10.88;96.30;100008.38;5019067;28;934;-84
2022/09/18 09:28:36;;;;;;;;;;;;;;;10.93;97.68;100000.06;5034706;28;1635;-83
2022/09/18 09:31:03;;;;;;;;;;;;;;;10.87;97.88;100012.22;4998357;28;1938;-83
2022/09/18 09:33:32;;;;;;;;;;;;;;;10.80;98.12;99998.84;4999677;28;1224;-83
2022/09/18 09:36:07;;;;;;;;;;;;;;;10.81;98.18;100003.22;4999075;28;1073;-84
2022/09/18 09:38:47;;;;;;;;;;;;;;;10.79;98.09;100001.91;5033740;28;1419;-83
2022/09/18 09:41:18;;;;;;;;;;;;;;;10.79;98.75;100010.94;5038465;28;874;-82
2022/09/18 09:43:57;;;;;;;;;;;;;;;10.79;97.99;99990.97;5037149;28;1331;-83
2022/09/18 09:46:35;;;;;;;;;;;;;;;10.76;98.53;99997.84;5037570;28;1412;-83
2022/09/18 09:49:06;;;;;;;;;;;;;;;10.68;99.16;100003.16;5019676;28;815;-82
2022/09/18 09:51:34;;;;;;;;;;;;;;;10.66;99.71;100002.63;5017814;28;1898;-83
2022/09/18 09:54:00;;;;;;;;;;;;;;;10.61;100.00;100008.97;5019457;28;1270;-83
2022/09/18 09:56:37;;;;;;;;;;;;;;;10.62;100.00;100010.63;5017858;28;1644;-82
2022/09/18 09:59:25;;;;;;;;;;;;;;;10.49;100.00;100014.03;5004710;28;1837;-83
2022/09/18 10:01:56;;;;;;;;;;;;;;;10.53;99.67;100007.72;5019053;28;1525;-83
2022/09/18 10:04:21;;;;;;;;;;;;;;;10.56;99.08;100011.75;5037812;28;1488;-82
2022/09/18 10:07:00;;;;;;;;;;;;;;;10.56;99.04;99998.91;5035856;28;1706;-83
2022/09/18 10:09:47;;;;;;;;;;;;;;;10.65;99.02;100010.00;5010195;28;1331;-82
2022/09/18 10:12:23;;;;;;;;;;;;;;;10.61;98.44;100003.50;5026743;28;1878;-82
2022/09/18 10:14:49;;;;;;;;;;;;;;;10.55;97.56;100007.41;5021177;28;1627;-82
2022/09/18 10:17:17;;;;;;;;;;;;;;;10.53;96.50;100013.19;5024694;28;1567;-81
2022/09/18 10:19:42;;;;;;;;;;;;;;;10.61;97.99;100017.19;5022795;28;886;-84
2022/09/18 10:22:10;;;;;;;;;;;;;;;10.56;97.02;100009.84;5028775;28;1419;-83
2022/09/18 10:24:52;;;;;;;;;;;;;;;10.51;96.28;100006.38;5010330;28;1778;-83
2022/09/18 10:27:18;;;;;;;;;;;;;;;10.59;97.57;100012.00;5022097;28;1380;-82
2022/09/18 10:29:44;;;;;;;;;;;;;;;10.69;97.93;100013.81;5036778;28;1461;-83
2022/09/18 10:32:12;;;;;;;;;;;;;;;10.65;98.71;100023.69;5021547;28;1906;-83
2022/09/18 10:34:39;;;;;;;;;;;;;;;10.61;98.18;100020.75;5029734;28;1517;-83
2022/09/18 10:37:11;;;;;;;;;;;;;;;10.65;97.78;100020.13;5021959;28;1309;-82
2022/09/18 10:39:46;;;;;;;;;;;;;;;10.65;98.44;100020.97;5023458;28;1171;-83
2022/09/18 10:42:15;;;;;;;;;;;;;;;10.67;98.38;100018.75;5035355;28;1547;-83
2022/09/18 10:44:42;;;;;;;;;;;;;;;10.63;98.30;100020.47;5029411;28;1531;-82
2022/09/18 10:47:18;;;;;;;;;;;;;;;10.70;97.90;100025.56;5029380;28;1690;-83
2022/09/18 10:49:55;;;;;;;;;;;;;;;10.53;97.83;100006.91;5014868;28;1490;-84
2022/09/18 10:52:33;;;;;;;;;;;;;;;10.62;97.25;100029.78;5013303;28;1957;-84
2022/09/18 10:55:05;;;;;;;;;;;;;;;10.71;97.75;100021.72;5018928;28;1637;-83
2022/09/18 10:57:34;;;;;;;;;;;;;;;10.68;97.70;100020.38;5031181;28;1475;-83
2022/09/18 11:00:01;;;;;;;;;;;;;;;10.73;96.98;100020.31;5020231;28;1733;-83
2022/09/18 11:02:28;;;;;;;;;;;;;;;10.76;97.09;100022.47;5021154;28;1313;-84
2022/09/18 11:04:53;;;;;;;;;;;;;;;10.80;97.18;100012.53;5019982;28;1876;-83
2022/09/18 11:07:20;;;;;;;;;;;;;;;10.89;97.16;100005.31;5030762;28;1011;-83
2022/09/18 11:09:45;;;;;;;;;;;;;;;10.98;97.80;100000.00;5021841;28;1568;-83
2022/09/18 11:12:13;;;;;;;;;;;;;;;10.98;97.20;99994.50;5031597;28;1988;-83
2022/09/18 11:14:40;;;;;;;;;;;;;;;11.02;96.96;99992.00;5029641;28;1284;-83
2022/09/18 11:17:10;;;;;;;;;;;;;;;11.07;98.05;100002.88;5031341;28;1716;-83
2022/09/18 11:19:37;;;;;;;;;;;;;;;11.04;97.42;99998.00;5024859;28;1253;-83
2022/09/18 11:22:04;;;;;;;;;;;;;;;11.02;97.46;99994.75;5021271;28;1460;-84
2022/09/18 11:24:32;;;;;;;;;;;;;;;11.07;98.34;99995.47;5024553;28;1320;-83
2022/09/18 11:26:58;;;;;;;;;;;;;;;11.15;98.85;99994.81;5029299;28;1530;-84
2022/09/18 11:29:35;;;;;;;;;;;;;;;11.16;99.56;99990.16;5016614;28;1436;-83
2022/09/18 11:32:19;;;;;;;;;;;;;;;11.12;99.24;99986.38;5023880;28;1946;-84
2022/09/18 11:34:49;;;;;;;;;;;;;;;10.63;98.14;99915.66;5000325;28;1390;-83
2022/09/18 11:37:29;;;;;;;;;;;;;;;11.11;98.30;99987.50;5023191;28;1354;-82
2022/09/18 11:39:58;;;;;;;;;;;;;;;11.12;99.06;99983.66;5014455;28;1425;-83
2022/09/18 11:42:24;;;;;;;;;;;;;;;11.13;99.39;99986.09;5002580;28;1077;-84
2022/09/18 11:44:50;;;;;;;;;;;;;;;11.14;99.67;99989.66;5006929;28;1599;-83
2022/09/18 11:47:18;;;;;;;;;;;;;;;11.13;99.81;99980.63;5029232;28;1413;-85
2022/09/18 11:49:50;;;;;;;;;;;;;;;11.00;99.41;99990.38;5024906;28;1253;-84
2022/09/18 11:52:34;;;;;;;;;;;;;;;10.99;99.77;99990.66;5024959;28;1883;-83
2022/09/18 11:55:10;;;;;;;;;;;;;;;10.92;99.62;99991.03;5022587;28;1407;-83
2022/09/18 11:57:39;;;;;;;;;;;;;;;10.96;99.81;99986.63;5016457;28;1162;-83
2022/09/18 12:00:06;;;;;;;;;;;;;;;10.91;99.06;99983.13;5024186;28;1498;-83
2022/09/18 12:02:50;;;;;;;;;;;;;;;10.91;99.17;99983.94;5025048;28;1427;-83
2022/09/18 12:05:21;;;;;;;;;;;;;;;10.94;99.44;99979.78;5022482;28;1213;-83
2022/09/18 12:08:11;;;;;;;;;;;;;;;10.88;100.00;99989.19;5032379;28;1408;-83
2022/09/18 12:10:47;;;;;;;;;;;;;;;10.80;99.33;99985.16;5029804;28;1421;-83
2022/09/18 12:13:32;;;;;;;;;;;;;;;10.83;98.81;99981.84;5017155;28;1945;-83
2022/09/18 12:16:02;;;;;;;;;;;;;;;10.81;98.54;99989.53;5012853;28;1401;-83
2022/09/18 12:18:31;;;;;;;;;;;;;;;10.71;98.13;99992.44;5024257;28;1368;-83
2022/09/18 12:21:04;;;;;;;;;;;;;;;10.72;98.20;99983.09;5032576;28;1288;-82
2022/09/18 12:23:30;;;;;;;;;;;;;;;10.79;97.94;99980.81;5027309;28;1322;-83
2022/09/18 12:26:00;;;;;;;;;;;;;;;10.84;98.75;99986.22;5028515;28;1529;-83
2022/09/18 12:28:34;;;;;;;;;;;;;;;10.84;99.48;99975.28;5021273;28;1442;-82
2022/09/18 12:31:08;;;;;;;;;;;;;;;10.87;100.00;99971.13;5025984;28;1890;-83
2022/09/18 12:33:54;;;;;;;;;;;;;;;10.80;100.00;99973.44;5034632;28;1373;-83
2022/09/18 12:36:35;;;;;;;;;;;;;;;10.79;99.84;99966.31;5015967;28;1378;-83
2022/09/18 12:39:00;;;;;;;;;;;;;;;10.77;100.00;99961.13;5016994;28;1731;-82
2022/09/18 12:41:43;;;;;;;;;;;;;;;10.71;99.02;99959.59;5032429;28;1366;-82
2022/09/18 12:44:08;;;;;;;;;;;;;;;10.66;96.52;99959.63;5023958;28;1382;-82
2022/09/18 12:46:43;;;;;;;;;;;;;;;10.70;97.42;99948.94;5004256;28;1553;-83
2022/09/18 12:49:08;;;;;;;;;;;;;;;10.61;95.40;99946.03;4997408;28;1264;-82
2022/09/18 12:51:56;;;;;;;;;;;;;;;10.67;96.41;99941.28;4998602;28;1957;-83
2022/09/18 12:54:40;;;;;;;;;;;;;;;10.57;95.08;99923.91;4999527;28;1240;-82
2022/09/18 12:57:30;;;;;;;;;;;;;;;10.66;94.84;99934.19;5010936;28;1771;-83
2022/09/18 13:00:11;;;;;;;;;;;;;;;10.67;94.49;99944.84;5025105;28;1451;-82